createdAt,value
2018-04-02T00:00:44.339Z,2.74
2018-04-02T00:01:44.358Z,2.75
2018-04-02T00:02:44.107Z,2.75
2018-04-02T00:03:44.382Z,2.74
2018-04-02T00:04:44.396Z,2.84
2018-04-02T00:05:44.513Z,2.87
2018-04-02T00:06:44.425Z,2.87
2018-04-02T00:07:44.177Z,2.85
2018-04-02T00:08:44.453Z,2.89
2018-04-02T00:09:44.469Z,2.87
2018-04-02T00:10:59.236Z,2.89
2018-04-02T00:11:44.236Z,2.82
2018-04-02T00:12:44.507Z,2.78
2018-04-02T00:13:44.524Z,2.69
2018-04-02T00:14:44.287Z,2.69
2018-04-02T00:15:44.551Z,2.69
2018-04-02T00:16:59.223Z,2.72
2018-04-02T00:17:44.588Z,2.67
2018-04-02T00:18:44.334Z,2.75
2018-04-02T00:19:44.356Z,2.53
2018-04-02T00:20:44.619Z,2.59
2018-04-02T00:21:44.735Z,2.63
2018-04-02T00:22:44.648Z,2.61
2018-04-02T00:23:44.662Z,2.56
2018-04-02T00:24:44.677Z,2.48
2018-04-02T00:25:44.692Z,2.52
2018-04-02T00:27:44.722Z,2.45
2018-04-02T00:28:44.474Z,2.45
2018-04-02T00:29:44.494Z,2.52
2018-04-02T00:30:44.762Z,2.48
2018-04-02T00:31:44.517Z,2.52
2018-04-02T00:32:44.793Z,2.41
2018-04-02T00:33:44.806Z,2.49
2018-04-02T00:34:44.818Z,2.48
2018-04-02T00:35:44.834Z,2.39
2018-04-02T00:36:44.849Z,2.43
2018-04-02T00:37:44.865Z,2.41
2018-04-02T00:38:44.613Z,2.31
2018-04-02T00:39:44.628Z,2.35
2018-04-02T00:41:44.915Z,2.31
2018-04-02T00:43:45.035Z,2.27
2018-04-02T00:44:44.957Z,2.3
2018-04-02T00:45:44.723Z,2.31
2018-04-02T00:46:44.989Z,2.24
2018-04-02T00:48:45.012Z,2.24
2018-04-02T00:49:59.683Z,2.24
2018-04-02T00:52:45.068Z,2.21
2018-04-02T00:53:45.094Z,2.16
2018-04-02T00:54:45.098Z,2.25
2018-04-02T00:55:45.117Z,2.06
2018-04-02T00:56:44.871Z,2.17
2018-04-02T00:57:45.144Z,2.07
2018-04-02T00:58:59.548Z,2.07
2018-04-02T01:00:44.660Z,2.12
2018-04-02T01:01:45.200Z,2.06
2018-04-02T01:02:45.206Z,2.06
2018-04-02T01:03:44.961Z,2.07
2018-04-02T01:04:45.234Z,2.02
2018-04-02T01:05:59.904Z,1.91
2018-04-02T01:06:45.267Z,1.91
2018-04-02T01:07:45.292Z,2.05
2018-04-02T01:08:45.297Z,2
2018-04-02T01:09:45.308Z,1.99
2018-04-02T01:10:59.985Z,1.95
2018-04-02T01:11:45.334Z,2.05
2018-04-02T01:12:45.395Z,1.99
2018-04-02T01:14:00.018Z,2.06
2018-04-02T01:14:45.377Z,1.91
2018-04-02T01:15:45.384Z,2.05
2018-04-02T01:16:45.402Z,2.02
2018-04-02T01:17:45.417Z,2.07
2018-04-02T01:18:45.430Z,2.06
2018-04-02T01:19:45.446Z,2.05
2018-04-02T01:20:45.460Z,2.03
2018-04-02T01:21:45.210Z,1.98
2018-04-02T01:22:45.495Z,2.07
2018-04-02T01:23:45.496Z,2.02
2018-04-02T01:24:45.259Z,1.93
2018-04-02T01:25:45.524Z,1.99
2018-04-02T01:26:45.539Z,2.02
2018-04-02T01:27:45.552Z,2.05
2018-04-02T01:28:45.782Z,2.06
2018-04-02T01:29:45.580Z,2.05
2018-04-02T01:30:45.594Z,2.06
2018-04-02T01:31:45.610Z,2
2018-04-02T01:33:00.282Z,2.09
2018-04-02T01:33:45.375Z,2.14
2018-04-02T01:34:45.646Z,2.02
2018-04-02T01:36:00.320Z,2
2018-04-02T01:36:45.678Z,2.09
2018-04-02T01:37:45.429Z,2.05
2018-04-02T01:39:45.731Z,2
2018-04-02T01:40:45.474Z,2.03
2018-04-02T01:41:45.747Z,2.06
2018-04-02T01:42:45.762Z,2.03
2018-04-02T01:43:45.784Z,1.99
2018-04-02T01:44:45.526Z,1.9
2018-04-02T01:46:00.461Z,2.03
2018-04-02T01:46:45.559Z,1.98
2018-04-02T01:47:45.828Z,1.95
2018-04-02T01:48:45.845Z,1.87
2018-04-02T01:49:45.862Z,1.99
2018-04-02T01:50:45.870Z,1.98
2018-04-02T01:51:45.882Z,1.91
2018-04-02T01:53:00.553Z,2.02
2018-04-02T01:53:45.909Z,1.99
2018-04-02T01:54:45.927Z,1.9
2018-04-02T01:55:45.949Z,1.81
2018-04-02T01:56:45.951Z,1.79
2018-04-02T01:57:45.963Z,1.86
2018-04-02T01:58:45.978Z,1.84
2018-04-02T01:59:45.992Z,1.77
2018-04-02T02:02:00.676Z,1.79
2018-04-02T02:02:46.036Z,1.84
2018-04-02T02:03:46.048Z,1.76
2018-04-02T02:04:45.543Z,1.81
2018-04-02T02:05:45.816Z,1.83
2018-04-02T02:06:46.091Z,1.86
2018-04-02T02:07:45.843Z,1.77
2018-04-02T02:09:00.772Z,1.84
2018-04-02T02:09:46.128Z,1.76
2018-04-02T02:10:45.885Z,1.76
2018-04-02T02:11:46.166Z,1.76
2018-04-02T02:12:46.170Z,1.8
2018-04-02T02:14:45.937Z,1.76
2018-04-02T02:16:46.334Z,1.68
2018-04-02T02:18:00.895Z,1.76
2018-04-02T02:18:46.251Z,1.79
2018-04-02T02:19:46.006Z,1.69
2018-04-02T02:20:46.026Z,1.68
2018-04-02T02:21:46.291Z,1.69
2018-04-02T02:23:00.966Z,1.69
2018-04-02T02:23:46.061Z,1.66
2018-04-02T02:25:00.991Z,1.6
2018-04-02T02:25:46.350Z,1.62
2018-04-02T02:26:46.360Z,1.65
2018-04-02T02:27:46.375Z,1.69
2018-04-02T02:29:00.786Z,1.66
2018-04-02T02:29:46.402Z,1.7
2018-04-02T02:31:01.098Z,1.69
2018-04-02T02:31:46.435Z,1.58
2018-04-02T02:32:46.187Z,1.54
2018-04-02T02:34:01.114Z,1.6
2018-04-02T02:34:46.471Z,1.59
2018-04-02T02:36:01.147Z,1.55
2018-04-02T02:36:46.240Z,1.51
2018-04-02T02:37:46.261Z,1.47
2018-04-02T02:38:46.532Z,1.48
2018-04-02T02:39:46.576Z,1.62
2018-04-02T02:40:46.560Z,1.54
2018-04-02T02:42:46.597Z,1.51
2018-04-02T02:43:46.598Z,1.37
2018-04-02T02:44:46.351Z,1.48
2018-04-02T02:45:46.363Z,1.42
2018-04-02T02:46:46.638Z,1.42
2018-04-02T02:47:46.653Z,1.48
2018-04-02T02:49:01.324Z,1.41
2018-04-02T02:49:46.675Z,1.37
2018-04-02T02:51:01.348Z,1.47
2018-04-02T02:51:46.711Z,1.52
2018-04-02T02:52:46.713Z,1.47
2018-04-02T02:53:46.475Z,1.51
2018-04-02T02:55:01.398Z,1.41
2018-04-02T02:56:01.413Z,1.5
2018-04-02T02:56:46.777Z,1.5
2018-04-02T02:57:46.787Z,1.41
2018-04-02T02:58:46.821Z,1.42
2018-04-02T02:59:46.809Z,1.37
2018-04-02T03:00:46.580Z,1.33
2018-04-02T03:01:46.846Z,1.44
2018-04-02T03:02:46.852Z,1.42
2018-04-02T03:03:46.867Z,1.41
2018-04-02T03:04:46.980Z,1.33
2018-04-02T03:05:46.895Z,1.45
2018-04-02T03:06:46.905Z,1.4
2018-04-02T03:07:46.928Z,1.47
2018-04-02T03:08:46.370Z,1.54
2018-04-02T03:10:46.700Z,1.4
2018-04-02T03:12:01.630Z,1.41
2018-04-02T03:13:01.641Z,1.47
2018-04-02T03:14:47.019Z,1.47
2018-04-02T03:15:47.034Z,1.3
2018-04-02T03:16:46.781Z,1.33
2018-04-02T03:17:46.792Z,1.34
2018-04-02T03:19:46.820Z,1.33
2018-04-02T03:21:01.755Z,1.27
2018-04-02T03:21:47.104Z,1.26
2018-04-02T03:22:46.864Z,1.32
2018-04-02T03:23:46.878Z,1.34
2018-04-02T03:24:47.150Z,1.23
2018-04-02T03:25:47.164Z,1.18
2018-04-02T03:26:46.920Z,1.22
2018-04-02T03:27:47.185Z,1.32
2018-04-02T03:29:01.917Z,1.41
2018-04-02T03:29:46.954Z,1.27
2018-04-02T03:31:47.246Z,1.3
2018-04-02T03:32:47.254Z,1.27
2018-04-02T03:33:47.264Z,1.22
2018-04-02T03:34:47.283Z,1.29
2018-04-02T03:35:47.291Z,1.33
2018-04-02T03:37:01.962Z,1.15
2018-04-02T03:37:47.319Z,1.22
2018-04-02T03:38:47.332Z,1.14
2018-04-02T03:39:47.089Z,1.18
2018-04-02T03:40:47.362Z,1.11
2018-04-02T03:41:47.376Z,1.05
2018-04-02T03:44:02.057Z,1.08
2018-04-02T03:44:47.415Z,1.04
2018-04-02T03:46:47.440Z,1.06
2018-04-02T03:47:47.198Z,1.08
2018-04-02T03:48:47.466Z,1.2
2018-04-02T03:49:47.218Z,1.05
2018-04-02T03:51:47.509Z,1.12
2018-04-02T03:53:47.533Z,1.15
2018-04-02T03:54:47.547Z,1.15
2018-04-02T03:55:47.565Z,1.12
2018-04-02T03:56:47.573Z,1.11
2018-04-02T03:57:47.591Z,1.15
2018-04-02T03:58:47.392Z,1.05
2018-04-02T03:59:47.667Z,1.02
2018-04-02T04:01:47.639Z,1.04
2018-04-02T04:02:47.655Z,0.97
2018-04-02T04:03:47.665Z,0.96
2018-04-02T04:05:47.437Z,1.12
2018-04-02T04:06:47.707Z,1.06
2018-04-02T04:07:47.718Z,1.09
2018-04-02T04:09:02.391Z,1.04
2018-04-02T04:09:47.757Z,1.11
2018-04-02T04:10:47.760Z,1.11
2018-04-02T04:11:47.776Z,1.14
2018-04-02T04:12:47.787Z,1.2
2018-04-02T04:13:47.798Z,1.2
2018-04-02T04:14:47.823Z,1.04
2018-04-02T04:15:47.823Z,1.18
2018-04-02T04:16:47.582Z,1.12
2018-04-02T04:17:47.852Z,1.15
2018-04-02T04:18:47.605Z,1.16
2018-04-02T04:19:47.877Z,1.16
2018-04-02T04:20:47.630Z,1.15
2018-04-02T04:21:47.646Z,1.23
2018-04-02T04:22:47.937Z,1.08
2018-04-02T04:24:02.588Z,1.22
2018-04-02T04:24:47.948Z,1.24
2018-04-02T04:25:47.963Z,1.11
2018-04-02T04:26:47.974Z,1.18
2018-04-02T04:27:47.985Z,1.14
2018-04-02T04:28:47.999Z,1.2
2018-04-02T04:29:47.766Z,1.24
2018-04-02T04:30:47.766Z,1.33
2018-04-02T04:31:48.038Z,1.29
2018-04-02T04:33:02.708Z,1.27
2018-04-02T04:33:48.064Z,1.29
2018-04-02T04:34:48.078Z,1.23
2018-04-02T04:35:47.837Z,1.22
2018-04-02T04:36:48.112Z,1.23
2018-04-02T04:38:48.138Z,1.16
2018-04-02T04:39:48.144Z,1.2
2018-04-02T04:40:47.908Z,1.22
2018-04-02T04:41:48.172Z,1.12
2018-04-02T04:42:48.191Z,1.11
2018-04-02T04:43:48.201Z,1.16
2018-04-02T04:44:48.216Z,1.09
2018-04-02T04:46:48.239Z,1.15
2018-04-02T04:47:48.000Z,1.09
2018-04-02T04:48:48.273Z,1.15
2018-04-02T04:49:48.280Z,1.11
2018-04-02T04:50:48.293Z,1.14
2018-04-02T04:51:48.312Z,1.24
2018-04-02T04:52:48.317Z,1.2
2018-04-02T04:53:48.331Z,1.16
2018-04-02T04:54:48.348Z,1.3
2018-04-02T04:56:03.116Z,1.27
2018-04-02T04:56:47.854Z,1.29
2018-04-02T04:57:48.389Z,1.3
2018-04-02T04:58:48.398Z,1.27
2018-04-02T04:59:48.411Z,1.26
2018-04-02T05:00:48.423Z,1.36
2018-04-02T05:01:48.183Z,1.32
2018-04-02T05:02:48.456Z,1.34
2018-04-02T05:04:03.121Z,1.4
2018-04-02T05:04:48.219Z,1.32
2018-04-02T05:05:48.235Z,1.4
2018-04-02T05:06:48.516Z,1.5
2018-04-02T05:07:48.516Z,1.52
2018-04-02T05:08:48.539Z,1.58
2018-04-02T05:09:48.544Z,1.58
2018-04-02T05:10:48.562Z,1.58
2018-04-02T05:12:02.970Z,1.58
2018-04-02T05:12:48.588Z,1.6
2018-04-02T05:13:48.597Z,1.6
2018-04-02T05:14:48.616Z,1.73
2018-04-02T05:15:48.372Z,1.65
2018-04-02T05:16:48.639Z,1.7
2018-04-02T05:17:48.400Z,1.65
2018-04-02T05:18:48.665Z,1.51
2018-04-02T05:19:48.680Z,1.62
2018-04-02T05:21:03.349Z,1.58
2018-04-02T05:21:48.710Z,1.6
2018-04-02T05:22:48.861Z,1.6
2018-04-02T05:23:48.475Z,1.59
2018-04-02T05:24:48.752Z,1.73
2018-04-02T05:25:48.766Z,1.68
2018-04-02T05:26:48.516Z,1.62
2018-04-02T05:28:03.288Z,1.62
2018-04-02T05:29:48.297Z,1.76
2018-04-02T05:31:03.495Z,1.87
2018-04-02T05:32:03.503Z,1.93
2018-04-02T05:32:48.597Z,1.87
2018-04-02T05:33:48.873Z,1.79
2018-04-02T05:34:48.894Z,1.79
2018-04-02T05:35:48.650Z,1.8
2018-04-02T05:36:48.910Z,1.91
2018-04-02T05:37:48.923Z,2.05
2018-04-02T05:38:49.044Z,1.98
2018-04-02T05:40:48.448Z,2
2018-04-02T05:41:48.979Z,2
2018-04-02T05:42:49.007Z,2.16
2018-04-02T05:44:03.672Z,2.18
2018-04-02T05:44:49.031Z,2.1
2018-04-02T05:46:03.698Z,2.14
2018-04-02T05:46:49.065Z,2.16
2018-04-02T05:47:49.062Z,2.2
2018-04-02T05:48:49.078Z,2.16
2018-04-02T05:49:49.100Z,2.14
2018-04-02T05:50:49.104Z,2.23
2018-04-02T05:51:48.862Z,2.27
2018-04-02T05:52:49.132Z,2.27
2018-04-02T05:53:49.146Z,2.25
2018-04-02T05:54:49.158Z,2.25
2018-04-02T05:55:48.914Z,2.3
2018-04-02T05:56:49.185Z,2.34
2018-04-02T05:57:49.204Z,2.24
2018-04-02T05:59:03.874Z,2.36
2018-04-02T05:59:49.283Z,2.31
2018-04-02T06:00:48.992Z,2.39
2018-04-02T06:01:49.263Z,2.46
2018-04-02T06:02:49.015Z,2.39
2018-04-02T06:03:49.284Z,2.35
2018-04-02T06:04:49.304Z,2.48
2018-04-02T06:05:49.054Z,2.56
2018-04-02T06:06:49.331Z,2.52
2018-04-02T06:08:03.997Z,2.43
2018-04-02T06:09:49.375Z,2.35
2018-04-02T06:11:49.398Z,2.46
2018-04-02T06:12:49.411Z,2.54
2018-04-02T06:13:49.428Z,2.63
2018-04-02T06:15:49.456Z,2.74
2018-04-02T06:16:49.481Z,2.84
2018-04-02T06:18:49.498Z,2.89
2018-04-02T06:19:49.254Z,2.81
2018-04-02T06:20:49.525Z,2.87
2018-04-02T06:21:49.283Z,2.95
2018-04-02T06:23:49.567Z,2.9
2018-04-02T06:24:49.591Z,3
2018-04-02T06:25:49.598Z,3
2018-04-02T06:26:49.620Z,3.05
2018-04-02T06:27:49.634Z,3.03
2018-04-02T06:28:49.742Z,3.08
2018-04-02T06:29:49.399Z,3.08
2018-04-02T06:31:04.071Z,2.96
2018-04-02T06:31:49.687Z,3.03
2018-04-02T06:32:49.700Z,3.03
2018-04-02T06:33:49.817Z,3.05
2018-04-02T06:34:49.733Z,3.02
2018-04-02T06:36:49.763Z,3.13
2018-04-02T06:37:49.517Z,3.31
2018-04-02T06:38:49.532Z,3.47
2018-04-02T06:39:49.806Z,3.45
2018-04-02T06:40:49.565Z,3.51
2018-04-02T06:41:49.835Z,3.45
2018-04-02T06:42:49.593Z,3.52
2018-04-02T06:43:49.869Z,3.52
2018-04-02T06:44:49.893Z,3.58
2018-04-02T06:45:49.895Z,3.66
2018-04-02T06:47:04.316Z,3.78
2018-04-02T06:48:49.947Z,3.87
2018-04-02T06:50:04.717Z,3.87
2018-04-02T06:50:49.715Z,3.86
2018-04-02T06:51:49.988Z,3.79
2018-04-02T06:52:50.007Z,3.79
2018-04-02T06:53:49.763Z,4.09
2018-04-02T06:54:50.042Z,4.34
2018-04-02T06:56:04.711Z,4.45
2018-04-02T06:56:50.074Z,4.63
2018-04-02T06:57:49.829Z,4.72
2018-04-02T06:58:50.110Z,4.89
2018-04-02T06:59:50.124Z,4.97
2018-04-02T07:01:50.162Z,4.75
2018-04-02T07:03:04.572Z,4.72
2018-04-02T07:03:50.191Z,4.73
2018-04-02T07:04:50.048Z,4.78
2018-04-02T07:05:50.229Z,5.1
2018-04-02T07:06:49.984Z,5.06
2018-04-02T07:07:50.001Z,5.04
2018-04-02T07:08:50.281Z,4.99
2018-04-02T07:09:50.042Z,4.99
2018-04-02T07:10:50.060Z,4.97
2018-04-02T07:11:50.073Z,5.13
2018-04-02T07:12:50.352Z,5.36
2018-04-02T07:13:50.370Z,5.15
2018-04-02T07:14:50.441Z,5.04
2018-04-02T07:15:50.151Z,5.22
2018-04-02T07:16:50.424Z,5.12
2018-04-02T07:17:50.440Z,5.17
2018-04-02T07:20:50.243Z,4.82
2018-04-02T07:21:50.261Z,4.73
2018-04-02T07:22:50.577Z,4.67
2018-04-02T07:23:50.553Z,4.73
2018-04-02T07:24:50.668Z,4.88
2018-04-02T07:26:05.244Z,5.04
2018-04-02T07:26:50.085Z,4.97
2018-04-02T07:27:50.627Z,5.1
2018-04-02T07:28:50.648Z,5.22
2018-04-02T07:29:50.661Z,5.51
2018-04-02T07:30:50.679Z,6.01
2018-04-02T07:31:50.699Z,6.21
2018-04-02T07:32:50.723Z,6.46
2018-04-02T07:34:05.403Z,6.56
2018-04-02T07:34:50.765Z,6.56
2018-04-02T07:35:50.782Z,7.1
2018-04-02T07:36:50.806Z,7.5
2018-04-02T07:37:50.827Z,7.77
2018-04-02T07:38:50.855Z,7.93
2018-04-02T07:39:50.873Z,8.08
2018-04-02T07:40:50.636Z,8.36
2018-04-02T07:41:50.925Z,8.33
2018-04-02T07:42:50.944Z,8.5
2018-04-02T07:43:50.966Z,8.8
2018-04-02T07:44:50.990Z,8.52
2018-04-02T07:45:50.756Z,8.68
2018-04-02T07:46:50.834Z,8.76
2018-04-02T07:47:50.545Z,8.83
2018-04-02T07:48:51.087Z,8.63
2018-04-02T07:49:50.852Z,8.47
2018-04-02T07:51:51.160Z,8.44
2018-04-02T07:52:51.183Z,8.43
2018-04-02T07:53:50.951Z,8.45
2018-04-02T07:54:51.336Z,8.55
2018-04-02T07:55:51.258Z,8.79
2018-04-02T07:57:05.995Z,9.14
2018-04-02T07:58:05.971Z,9.05
2018-04-02T07:58:51.329Z,9.15
2018-04-02T07:59:51.362Z,9.36
2018-04-02T08:00:51.394Z,9.5
2018-04-02T08:01:51.403Z,9.61
2018-04-02T08:02:51.769Z,9.76
2018-04-02T08:03:51.203Z,9.57
2018-04-02T08:04:51.219Z,9.69
2018-04-02T08:06:06.165Z,9.75
2018-04-02T08:06:51.530Z,9.81
2018-04-02T08:07:51.294Z,10.05
2018-04-02T08:10:51.628Z,10.36
2018-04-02T08:11:51.653Z,10.23
2018-04-02T08:12:51.676Z,10.25
2018-04-02T08:14:06.364Z,9.65
2018-04-02T08:14:51.729Z,9.83
2018-04-02T08:15:51.829Z,9.76
2018-04-02T08:16:51.787Z,9.69
2018-04-02T08:17:51.594Z,10.07
2018-04-02T08:18:51.836Z,10.25
2018-04-02T08:19:51.597Z,10.34
2018-04-02T08:20:51.889Z,10.51
2018-04-02T08:22:06.564Z,10.94
2018-04-02T08:22:51.929Z,10.99
2018-04-02T08:23:51.957Z,11.09
2018-04-02T08:24:51.979Z,11.03
2018-04-02T08:25:52.006Z,11
2018-04-02T08:26:52.043Z,11.15
2018-04-02T08:27:51.796Z,11.18
2018-04-02T08:29:06.742Z,11.28
2018-04-02T08:29:51.850Z,11.22
2018-04-02T08:30:52.131Z,10.78
2018-04-02T08:31:52.160Z,10.66
2018-04-02T08:32:52.182Z,10.42
2018-04-02T08:33:52.049Z,10.51
2018-04-02T08:34:51.977Z,10.66
2018-04-02T08:35:52.259Z,10.59
2018-04-02T08:36:51.766Z,10.76
2018-04-02T08:38:06.709Z,10.85
2018-04-02T08:38:52.600Z,10.96
2018-04-02T08:39:52.360Z,10.68
2018-04-02T08:40:52.386Z,10.3
2018-04-02T08:41:52.415Z,10.38
2018-04-02T08:42:52.441Z,10.64
2018-04-02T08:43:52.461Z,10.44
2018-04-02T08:44:52.495Z,10.88
2018-04-02T08:46:52.016Z,11.42
2018-04-02T08:47:52.558Z,11.35
2018-04-02T08:48:52.591Z,11.46
2018-04-02T08:49:52.349Z,11.27
2018-04-02T08:50:52.642Z,11.28
2018-04-02T08:51:52.666Z,11.04
2018-04-02T08:52:52.690Z,10.91
2018-04-02T08:54:07.375Z,10.7
2018-04-02T08:54:52.736Z,10.7
2018-04-02T08:56:07.423Z,10.79
2018-04-02T08:56:52.782Z,11.15
2018-04-02T08:57:52.548Z,11.49
2018-04-02T08:58:52.573Z,11.75
2018-04-02T08:59:52.856Z,11.72
2018-04-02T09:00:52.625Z,11.8
2018-04-02T09:01:52.908Z,11.7
2018-04-02T09:02:52.931Z,11.7
2018-04-02T09:03:52.957Z,12.07
2018-04-02T09:04:52.722Z,11.57
2018-04-02T09:05:52.747Z,11.6
2018-04-02T09:06:53.039Z,11.69
2018-04-02T09:07:53.059Z,11.4
2018-04-02T09:09:07.484Z,11.46
2018-04-02T09:09:53.107Z,11.35
2018-04-02T09:11:07.797Z,11.18
2018-04-02T09:11:53.156Z,11.33
2018-04-02T09:12:53.187Z,11.65
2018-04-02T09:13:52.949Z,11.95
2018-04-02T09:14:52.973Z,11.51
2018-04-02T09:15:53.315Z,11.32
2018-04-02T09:17:07.941Z,10.32
2018-04-02T09:17:53.311Z,10.14
2018-04-02T09:18:53.076Z,9.94
2018-04-02T09:19:53.363Z,10.15
2018-04-02T09:20:53.379Z,10.02
2018-04-02T09:21:53.442Z,10.27
2018-04-02T09:22:52.910Z,10.7
2018-04-02T09:24:53.608Z,11.28
2018-04-02T09:25:53.501Z,11.58
2018-04-02T09:26:53.525Z,11.6
2018-04-02T09:27:53.550Z,11.47
2018-04-02T09:28:53.573Z,11.76
2018-04-02T09:29:53.710Z,11.73
2018-04-02T09:30:53.622Z,11.61
2018-04-02T09:31:53.693Z,11.17
2018-04-02T09:32:53.418Z,10.99
2018-04-02T09:33:53.695Z,11.06
2018-04-02T09:35:08.122Z,11.35
2018-04-02T09:35:53.746Z,11.33
2018-04-02T09:36:53.775Z,11.6
2018-04-02T09:39:53.839Z,12.52
2018-04-02T09:41:08.268Z,12.13
2018-04-02T09:41:53.636Z,12.32
2018-04-02T09:42:53.919Z,12.52
2018-04-02T09:44:08.601Z,12.39
2018-04-02T09:44:53.961Z,12.46
2018-04-02T09:45:53.989Z,12.37
2018-04-02T09:46:54.010Z,12.1
2018-04-02T09:48:08.694Z,12.35
2018-04-02T09:49:08.718Z,12.34
2018-04-02T09:49:53.831Z,12.32
2018-04-02T09:50:53.850Z,12.49
2018-04-02T09:51:54.134Z,12.14
2018-04-02T09:52:54.158Z,12.04
2018-04-02T09:53:54.193Z,12.14
2018-04-02T09:55:54.236Z,12.35
2018-04-02T09:57:54.287Z,12.46
2018-04-02T09:58:54.370Z,12.45
2018-04-02T09:59:54.331Z,11.83
2018-04-02T10:00:54.353Z,11.94
2018-04-02T10:01:54.118Z,11.83
2018-04-02T10:02:54.402Z,11.75
2018-04-02T10:04:09.085Z,12.35
2018-04-02T10:04:54.882Z,12.35
2018-04-02T10:05:54.527Z,12.28
2018-04-02T10:06:54.516Z,12.31
2018-04-02T10:07:54.007Z,12.45
2018-04-02T10:08:54.546Z,12.24
2018-04-02T10:09:54.722Z,12.37
2018-04-02T10:10:54.336Z,12.32
2018-04-02T10:11:54.101Z,12.37
2018-04-02T10:13:09.313Z,12.39
2018-04-02T10:13:54.458Z,12.42
2018-04-02T10:14:54.436Z,12.54
2018-04-02T10:15:54.719Z,12.46
2018-04-02T10:16:54.738Z,12.41
2018-04-02T10:17:54.505Z,12.37
2018-04-02T10:18:54.807Z,12.31
2018-04-02T10:19:54.554Z,11.96
2018-04-02T10:20:54.580Z,11.47
2018-04-02T10:21:54.860Z,11.43
2018-04-02T10:22:54.885Z,11.21
2018-04-02T10:23:55.185Z,10.94
2018-04-02T10:24:54.931Z,10.92
2018-04-02T10:25:54.697Z,10.82
2018-04-02T10:26:54.981Z,10.61
2018-04-02T10:27:55.007Z,10.36
2018-04-02T10:29:09.431Z,10.34
2018-04-02T10:29:55.164Z,10.32
2018-04-02T10:30:54.824Z,10.25
2018-04-02T10:31:55.099Z,10.17
2018-04-02T10:32:55.129Z,10.15
2018-04-02T10:33:54.888Z,10.07
2018-04-02T10:34:55.206Z,10.15
2018-04-02T10:36:09.854Z,9.99
2018-04-02T10:36:55.220Z,9.71
2018-04-02T10:37:55.241Z,9.71
2018-04-02T10:38:55.006Z,10.09
2018-04-02T10:39:55.292Z,10.04
2018-04-02T10:40:55.314Z,10.11
2018-04-02T10:41:55.094Z,10.22
2018-04-02T10:42:55.367Z,10.22
2018-04-02T10:44:10.088Z,10.18
2018-04-02T10:44:55.403Z,10.25
2018-04-02T10:45:55.426Z,10.12
2018-04-02T10:46:55.452Z,10.09
2018-04-02T10:47:55.479Z,10.22
2018-04-02T10:48:55.236Z,10.27
2018-04-02T10:49:55.272Z,10.26
2018-04-02T10:50:55.279Z,10.25
2018-04-02T10:51:55.561Z,10.17
2018-04-02T10:53:10.242Z,10.23
2018-04-02T10:53:55.416Z,10.27
2018-04-02T10:54:55.371Z,10.29
2018-04-02T10:55:55.661Z,10.2
2018-04-02T10:56:55.671Z,10.18
2018-04-02T10:57:55.696Z,10.2
2018-04-02T10:58:55.458Z,10.11
2018-04-02T10:59:55.530Z,10.18
2018-04-02T11:00:55.761Z,10.18
2018-04-02T11:01:55.781Z,10.33
2018-04-02T11:02:55.546Z,10.22
2018-04-02T11:03:55.824Z,10.26
2018-04-02T11:04:55.846Z,10.32
2018-04-02T11:05:55.612Z,10.48
2018-04-02T11:07:10.550Z,10.63
2018-04-02T11:08:10.571Z,10.59
2018-04-02T11:08:55.680Z,10.51
2018-04-02T11:09:55.955Z,10.22
2018-04-02T11:10:55.977Z,10.38
2018-04-02T11:11:55.738Z,10.61
2018-04-02T11:12:55.760Z,10.73
2018-04-02T11:13:55.523Z,10.79
2018-04-02T11:16:10.484Z,10.71
2018-04-02T11:16:56.110Z,10.73
2018-04-02T11:17:56.177Z,10.67
2018-04-02T11:18:56.147Z,10.74
2018-04-02T11:19:56.171Z,10.29
2018-04-02T11:20:55.934Z,10.32
2018-04-02T11:21:55.695Z,10.41
2018-04-02T11:22:55.989Z,10.36
2018-04-02T11:23:55.996Z,10.53
2018-04-02T11:24:56.276Z,10.36
2018-04-02T11:25:56.297Z,10.36
2018-04-02T11:26:56.318Z,9.97
2018-04-02T11:27:56.341Z,10.22
2018-04-02T11:28:56.121Z,10.4
2018-04-02T11:29:56.381Z,10.27
2018-04-02T11:30:56.144Z,10.23
2018-04-02T11:32:10.824Z,10.18
2018-04-02T11:32:56.546Z,10.29
2018-04-02T11:34:56.486Z,10.55
2018-04-02T11:35:56.330Z,10.45
2018-04-02T11:36:56.530Z,10.44
2018-04-02T11:37:56.298Z,10.48
2018-04-02T11:38:56.574Z,10.38
2018-04-02T11:39:56.595Z,10.64
2018-04-02T11:40:56.354Z,10.59
2018-04-02T11:41:56.641Z,10.71
2018-04-02T11:42:56.814Z,10.7
2018-04-02T11:43:56.678Z,10.81
2018-04-02T11:44:56.437Z,10.74
2018-04-02T11:46:56.752Z,10.71
2018-04-02T11:48:11.504Z,10.4
2018-04-02T11:48:56.781Z,10.47
2018-04-02T11:50:56.826Z,10.22
2018-04-02T11:51:56.844Z,10.25
2018-04-02T11:52:56.604Z,10.2
2018-04-02T11:53:56.885Z,10.3
2018-04-02T11:55:11.565Z,10.23
2018-04-02T11:55:56.932Z,10.38
2018-04-02T11:56:56.947Z,10.79
2018-04-02T11:58:11.368Z,11.07
2018-04-02T11:58:56.990Z,11.1
2018-04-02T11:59:57.007Z,11.04
2018-04-02T12:00:56.772Z,11.09
2018-04-02T12:02:56.812Z,10.85
2018-04-02T12:04:11.751Z,10.82
2018-04-02T12:05:57.140Z,10.53
2018-04-02T12:06:57.158Z,10.66
2018-04-02T12:07:57.176Z,10.71
2018-04-02T12:08:57.198Z,10.7
2018-04-02T12:09:57.224Z,10.59
2018-04-02T12:10:56.981Z,10.45
2018-04-02T12:11:57.000Z,10.53
2018-04-02T12:12:57.021Z,10.79
2018-04-02T12:13:57.040Z,10.68
2018-04-02T12:14:57.322Z,10.78
2018-04-02T12:15:57.346Z,10.78
2018-04-02T12:16:57.363Z,10.73
2018-04-02T12:17:57.223Z,10.73
2018-04-02T12:19:12.066Z,10.92
2018-04-02T12:19:57.426Z,11.1
2018-04-02T12:20:57.349Z,11.27
2018-04-02T12:21:57.208Z,11.29
2018-04-02T12:22:57.229Z,11.4
2018-04-02T12:23:57.508Z,11.55
2018-04-02T12:24:57.530Z,11.65
2018-04-02T12:25:57.550Z,11.22
2018-04-02T12:26:57.571Z,11.24
2018-04-02T12:27:57.108Z,10.97
2018-04-02T12:29:12.014Z,10.99
2018-04-02T12:29:57.384Z,11.11
2018-04-02T12:30:57.395Z,11.25
2018-04-02T12:31:57.413Z,11.11
2018-04-02T12:33:57.726Z,10.86
2018-04-02T12:35:57.758Z,10.86
2018-04-02T12:36:57.800Z,11
2018-04-02T12:37:57.802Z,10.74
2018-04-02T12:38:57.821Z,10.97
2018-04-02T12:39:57.582Z,11
2018-04-02T12:40:57.865Z,11
2018-04-02T12:41:57.892Z,10.89
2018-04-02T12:42:57.865Z,11.06
2018-04-02T12:43:57.896Z,11.03
2018-04-02T12:44:57.688Z,11.1
2018-04-02T12:45:57.999Z,11.09
2018-04-02T12:46:57.985Z,11.15
2018-04-02T12:47:57.748Z,10.99
2018-04-02T12:48:57.510Z,10.92
2018-04-02T12:49:58.053Z,10.88
2018-04-02T12:51:12.729Z,10.89
2018-04-02T12:51:58.216Z,10.79
2018-04-02T12:52:58.111Z,10.78
2018-04-02T12:53:58.141Z,10.7
2018-04-02T12:54:57.894Z,10.81
2018-04-02T12:55:58.172Z,10.86
2018-04-02T12:57:12.853Z,10.84
2018-04-02T12:57:58.214Z,10.73
2018-04-02T12:58:57.978Z,10.74
2018-04-02T12:59:58.264Z,10.71
2018-04-02T13:00:58.276Z,10.84
2018-04-02T13:01:58.037Z,10.86
2018-04-02T13:02:58.361Z,10.99
2018-04-02T13:03:58.079Z,10.84
2018-04-02T13:04:58.104Z,10.91
2018-04-02T13:05:58.388Z,10.79
2018-04-02T13:07:12.799Z,10.7
2018-04-02T13:07:58.421Z,10.73
2018-04-02T13:08:58.441Z,10.74
2018-04-02T13:09:58.460Z,10.47
2018-04-02T13:10:58.223Z,10.63
2018-04-02T13:11:58.510Z,10.45
2018-04-02T13:12:58.526Z,10.66
2018-04-02T13:14:13.203Z,10.67
2018-04-02T13:15:13.221Z,10.74
2018-04-02T13:15:58.326Z,10.71
2018-04-02T13:16:58.603Z,10.7
2018-04-02T13:17:58.628Z,10.7
2018-04-02T13:18:59.265Z,10.38
2018-04-02T13:23:13.387Z,10.64
2018-04-02T13:23:58.490Z,10.79
2018-04-02T13:24:58.511Z,10.88
2018-04-02T13:25:58.786Z,10.84
2018-04-02T13:26:58.808Z,10.81
2018-04-02T13:27:58.833Z,10.76
2018-04-02T13:29:13.509Z,10.76
2018-04-02T13:30:13.528Z,10.82
2018-04-02T13:30:58.666Z,10.74
2018-04-02T13:32:58.930Z,11.07
2018-04-02T13:33:58.964Z,10.97
2018-04-02T13:34:58.974Z,10.97
2018-04-02T13:35:58.739Z,11.04
2018-04-02T13:36:58.753Z,10.85
2018-04-02T13:37:59.176Z,10.7
2018-04-02T13:40:59.132Z,10.89
2018-04-02T13:41:58.596Z,11.11
2018-04-02T13:42:58.878Z,11.21
2018-04-02T13:43:59.160Z,11.28
2018-04-02T13:44:58.916Z,11.32
2018-04-02T13:45:59.204Z,11.29
2018-04-02T13:46:59.219Z,11.09
2018-04-02T13:47:59.247Z,11.06
2018-04-02T13:48:58.999Z,11.11
2018-04-02T13:49:59.300Z,11.14
2018-04-02T13:50:59.299Z,11.15
2018-04-02T13:51:59.070Z,11.06
2018-04-02T13:54:14.022Z,11.06
2018-04-02T13:54:59.381Z,11.17
2018-04-02T13:56:14.064Z,11.24
2018-04-02T13:56:59.424Z,11.24
2018-04-02T13:57:59.186Z,11.27
2018-04-02T13:58:59.209Z,11.24
2018-04-02T14:00:14.143Z,11.19
2018-04-02T14:00:59.505Z,11.15
2018-04-02T14:01:59.269Z,11.21
2018-04-02T14:02:59.547Z,11.1
2018-04-02T14:03:59.566Z,11.22
2018-04-02T14:04:59.591Z,11.24
2018-04-02T14:05:59.609Z,11.32
2018-04-02T14:07:59.646Z,11.28
2018-04-02T14:08:59.408Z,11.14
2018-04-02T14:09:59.691Z,11.07
2018-04-02T14:10:59.676Z,11.17
2018-04-02T14:12:14.394Z,11.4